createdAt,value
2023-01-04T00:00:48.457Z,8.30
2023-01-04T00:01:48.537Z,8.32
2023-01-04T00:02:48.590Z,8.35
2023-01-04T00:03:48.637Z,8.35
2023-01-04T00:04:48.417Z,8.36
2023-01-04T00:05:48.395Z,8.45
2023-01-04T00:06:48.877Z,8.47
2023-01-04T00:07:48.353Z,8.48
2023-01-04T00:08:48.774Z,8.51
2023-01-04T00:09:48.396Z,8.51
2023-01-04T00:10:48.282Z,8.53
2023-01-04T00:11:48.432Z,8.55
2023-01-04T00:12:48.300Z,8.53
2023-01-04T00:13:48.599Z,8.51
2023-01-04T00:14:48.351Z,8.51
2023-01-04T00:15:48.515Z,8.51
2023-01-04T00:16:48.439Z,8.50
2023-01-04T00:17:48.353Z,8.48
2023-01-04T00:18:48.250Z,8.47
2023-01-04T00:19:48.319Z,8.48
2023-01-04T00:20:48.223Z,8.50
2023-01-04T00:21:48.439Z,8.53
2023-01-04T00:22:48.248Z,8.51
2023-01-04T00:23:48.354Z,8.54
2023-01-04T00:24:48.310Z,8.54
2023-01-04T00:25:48.220Z,8.57
2023-01-04T00:26:48.201Z,8.58
2023-01-04T00:27:48.205Z,8.57
2023-01-04T00:28:53.878Z,8.57
2023-01-04T00:29:48.180Z,8.57
2023-01-04T00:30:48.373Z,8.58
2023-01-04T00:31:48.212Z,8.58
2023-01-04T00:32:48.210Z,8.57
2023-01-04T00:33:48.226Z,8.60
2023-01-04T00:34:48.107Z,8.62
2023-01-04T00:35:48.092Z,8.62
2023-01-04T00:36:48.240Z,8.63
2023-01-04T00:37:51.892Z,8.62
2023-01-04T00:38:48.206Z,8.58
2023-01-04T00:39:48.364Z,8.54
2023-01-04T00:40:48.169Z,8.48
2023-01-04T00:42:03.414Z,8.44
2023-01-04T00:42:48.180Z,8.37
2023-01-04T00:43:48.272Z,8.32
2023-01-04T00:44:48.018Z,8.26
2023-01-04T00:45:48.223Z,8.22
2023-01-04T00:46:48.070Z,8.17
2023-01-04T00:47:47.975Z,8.10
2023-01-04T00:48:49.129Z,8.04
2023-01-04T00:49:47.957Z,8.00
2023-01-04T00:50:47.933Z,7.94
2023-01-04T00:51:47.943Z,7.90
2023-01-04T00:52:47.952Z,7.89
2023-01-04T00:53:47.936Z,7.89
2023-01-04T00:54:47.895Z,7.85
2023-01-04T00:55:48.179Z,7.87
2023-01-04T00:56:47.904Z,7.87
2023-01-04T00:57:47.924Z,7.85
2023-01-04T00:58:47.870Z,7.85
2023-01-04T00:59:47.862Z,7.82
2023-01-04T01:00:47.802Z,7.81
2023-01-04T01:01:48.646Z,7.79
2023-01-04T01:02:48.230Z,7.78
2023-01-04T01:03:47.894Z,7.75
2023-01-04T01:04:48.033Z,7.72
2023-01-04T01:05:47.803Z,7.67
2023-01-04T01:06:48.073Z,7.62
2023-01-04T01:07:47.884Z,7.60
2023-01-04T01:08:47.774Z,7.62
2023-01-04T01:09:47.867Z,7.62
2023-01-04T01:10:47.719Z,7.60
2023-01-04T01:11:47.935Z,7.60
2023-01-04T01:12:47.695Z,7.59
2023-01-04T01:13:47.933Z,7.60
2023-01-04T01:14:47.740Z,7.62
2023-01-04T01:15:48.165Z,7.59
2023-01-04T01:16:57.773Z,7.58
2023-01-04T01:17:47.652Z,7.56
2023-01-04T01:18:47.960Z,7.55
2023-01-04T01:19:47.618Z,7.58
2023-01-04T01:20:47.634Z,7.59
2023-01-04T01:21:47.719Z,7.58
2023-01-04T01:22:47.730Z,7.58
2023-01-04T01:23:47.713Z,7.55
2023-01-04T01:24:47.759Z,7.55
2023-01-04T01:25:47.593Z,7.53
2023-01-04T01:26:47.763Z,7.52
2023-01-04T01:27:48.772Z,7.55
2023-01-04T01:28:47.692Z,7.55
2023-01-04T01:29:47.562Z,7.55
2023-01-04T01:30:47.661Z,7.53
2023-01-04T01:31:47.640Z,7.52
2023-01-04T01:32:47.533Z,7.52
2023-01-04T01:33:47.676Z,7.50
2023-01-04T01:34:47.569Z,7.50
2023-01-04T01:35:47.906Z,7.50
2023-01-04T01:36:47.469Z,7.49
2023-01-04T01:37:47.571Z,7.50
2023-01-04T01:38:47.634Z,7.50
2023-01-04T01:39:47.487Z,7.53
2023-01-04T01:40:47.883Z,7.52
2023-01-04T01:41:47.788Z,7.53
2023-01-04T01:42:47.954Z,7.53
2023-01-04T01:43:47.380Z,7.52
2023-01-04T01:44:47.411Z,7.52
2023-01-04T01:45:47.413Z,7.55
2023-01-04T01:46:47.492Z,7.53
2023-01-04T01:47:47.412Z,7.53
2023-01-04T01:48:47.396Z,7.55
2023-01-04T01:49:47.366Z,7.56
2023-01-04T01:50:47.771Z,7.58
2023-01-04T01:51:47.399Z,7.56
2023-01-04T01:52:47.340Z,7.56
2023-01-04T01:53:47.435Z,7.56
2023-01-04T01:54:47.347Z,7.56
2023-01-04T01:55:47.753Z,7.58
2023-01-04T01:56:47.260Z,7.56
2023-01-04T01:57:47.497Z,7.56
2023-01-04T01:58:47.453Z,7.56
2023-01-04T01:59:47.358Z,7.56
2023-01-04T02:00:47.379Z,7.58
2023-01-04T02:01:47.799Z,7.58
2023-01-04T02:02:47.940Z,7.56
2023-01-04T02:03:47.492Z,7.58
2023-01-04T02:04:47.361Z,7.59
2023-01-04T02:05:47.209Z,7.56
2023-01-04T02:06:47.853Z,7.58
2023-01-04T02:07:47.171Z,7.58
2023-01-04T02:08:47.445Z,7.56
2023-01-04T02:09:47.152Z,7.59
2023-01-04T02:10:47.216Z,7.56
2023-01-04T02:11:47.205Z,7.58
2023-01-04T02:12:47.187Z,7.59
2023-01-04T02:13:47.077Z,7.59
2023-01-04T02:14:47.286Z,7.59
2023-01-04T02:15:47.227Z,7.58
2023-01-04T02:16:47.868Z,7.58
2023-01-04T02:17:47.072Z,7.59
2023-01-04T02:18:47.284Z,7.59
2023-01-04T02:19:47.276Z,7.58
2023-01-04T02:20:47.343Z,7.59
2023-01-04T02:21:47.423Z,7.56
2023-01-04T02:22:47.079Z,7.58
2023-01-04T02:23:47.585Z,7.58
2023-01-04T02:24:47.281Z,7.59
2023-01-04T02:25:47.494Z,7.59
2023-01-04T02:26:47.015Z,7.60
2023-01-04T02:27:47.055Z,7.62
2023-01-04T02:28:47.428Z,7.63
2023-01-04T02:29:46.959Z,7.62
2023-01-04T02:30:46.996Z,7.66
2023-01-04T02:31:47.016Z,7.63
2023-01-04T02:32:47.111Z,7.66
2023-01-04T02:33:47.222Z,7.66
2023-01-04T02:34:46.911Z,7.66
2023-01-04T02:35:47.117Z,7.66
2023-01-04T02:36:46.921Z,7.66
2023-01-04T02:37:46.891Z,7.67
2023-01-04T02:38:47.033Z,7.69
2023-01-04T02:39:47.244Z,7.67
2023-01-04T02:40:46.838Z,7.67
2023-01-04T02:41:47.015Z,7.71
2023-01-04T02:42:46.954Z,7.69
2023-01-04T02:43:47.215Z,7.71
2023-01-04T02:44:46.831Z,7.71
2023-01-04T02:45:46.852Z,7.69
2023-01-04T02:46:47.117Z,7.69
2023-01-04T02:47:46.780Z,7.71
2023-01-04T02:48:47.065Z,7.71
2023-01-04T02:49:47.237Z,7.72
2023-01-04T02:50:47.195Z,7.71
2023-01-04T02:51:46.853Z,7.72
2023-01-04T02:52:46.954Z,7.72
2023-01-04T02:53:46.815Z,7.72
2023-01-04T02:54:47.001Z,7.74
2023-01-04T02:55:46.815Z,7.75
2023-01-04T02:56:46.701Z,7.75
2023-01-04T02:57:48.167Z,7.74
2023-01-04T02:58:47.239Z,7.75
2023-01-04T02:59:46.853Z,7.74
2023-01-04T03:00:46.825Z,7.75
2023-01-04T03:01:47.269Z,7.77
2023-01-04T03:02:47.032Z,7.77
2023-01-04T03:03:46.934Z,7.75
2023-01-04T03:04:46.926Z,7.75
2023-01-04T03:05:46.588Z,7.78
2023-01-04T03:06:46.988Z,7.81
2023-01-04T03:07:46.600Z,7.79
2023-01-04T03:08:46.584Z,7.82
2023-01-04T03:09:46.832Z,7.81
2023-01-04T03:10:46.572Z,7.82
2023-01-04T03:11:46.537Z,7.82
2023-01-04T03:12:46.620Z,7.85
2023-01-04T03:13:46.983Z,7.85
2023-01-04T03:14:46.710Z,7.87
2023-01-04T03:15:46.990Z,7.89
2023-01-04T03:16:46.887Z,7.89
2023-01-04T03:17:46.632Z,7.90
2023-01-04T03:18:46.819Z,7.92
2023-01-04T03:19:47.201Z,7.90
2023-01-04T03:20:46.580Z,7.90
2023-01-04T03:21:46.513Z,7.92
2023-01-04T03:22:46.525Z,7.92
2023-01-04T03:23:46.933Z,7.92
2023-01-04T03:24:46.600Z,7.92
2023-01-04T03:25:46.614Z,7.93
2023-01-04T03:26:46.825Z,7.93
2023-01-04T03:27:46.408Z,7.93
2023-01-04T03:28:46.624Z,7.93
2023-01-04T03:29:46.359Z,7.94
2023-01-04T03:30:46.941Z,7.94
2023-01-04T03:31:46.492Z,7.96
2023-01-04T03:32:46.956Z,7.97
2023-01-04T03:33:46.629Z,7.99
2023-01-04T03:34:46.421Z,7.99
2023-01-04T03:35:46.474Z,8.00
2023-01-04T03:36:46.305Z,8.02
2023-01-04T03:37:46.251Z,8.03
2023-01-04T03:38:46.274Z,8.07
2023-01-04T03:39:46.526Z,8.08
2023-01-04T03:40:46.218Z,8.07
2023-01-04T03:41:46.607Z,8.08
2023-01-04T03:42:46.387Z,8.10
2023-01-04T03:43:46.212Z,8.12
2023-01-04T03:44:46.409Z,8.12
2023-01-04T03:45:46.232Z,8.11
2023-01-04T03:46:46.248Z,8.12
2023-01-04T03:47:46.412Z,8.11
2023-01-04T03:48:46.345Z,8.14
2023-01-04T03:49:46.372Z,8.15
2023-01-04T03:50:46.155Z,8.15
2023-01-04T03:51:47.064Z,8.17
2023-01-04T03:52:46.442Z,8.17
2023-01-04T03:53:46.126Z,8.21
2023-01-04T03:54:46.572Z,8.21
2023-01-04T03:55:46.209Z,8.21
2023-01-04T03:56:46.113Z,8.22
2023-01-04T03:57:46.487Z,8.25
2023-01-04T03:58:46.544Z,8.26
2023-01-04T03:59:46.076Z,8.26
2023-01-04T04:00:46.085Z,8.29
2023-01-04T04:01:46.341Z,8.29
2023-01-04T04:02:46.413Z,8.32
2023-01-04T04:03:46.748Z,8.33
2023-01-04T12:09:51.436Z,11.43
2023-01-04T12:10:52.310Z,11.39
2023-01-04T12:11:52.284Z,11.39
2023-01-04T12:12:52.295Z,11.38
2023-01-04T12:13:52.645Z,11.38
2023-01-04T12:14:52.247Z,11.38
2023-01-04T12:15:52.247Z,11.38
2023-01-04T12:16:52.265Z,11.36
2023-01-04T12:17:52.239Z,11.36
2023-01-04T12:18:52.223Z,11.36
2023-01-04T12:19:52.228Z,11.38
2023-01-04T12:20:52.251Z,11.38
2023-01-04T12:21:52.518Z,11.38
2023-01-04T12:22:52.255Z,11.38
2023-01-04T12:23:52.238Z,11.36
2023-01-04T12:24:58.440Z,11.39
2023-01-04T12:25:52.370Z,11.39
2023-01-04T12:26:52.240Z,11.39
2023-01-04T12:27:52.129Z,11.41
2023-01-04T12:28:52.094Z,11.41
2023-01-04T12:29:52.147Z,11.39
2023-01-04T12:30:52.102Z,11.39
2023-01-04T12:31:52.198Z,11.38
2023-01-04T12:32:52.066Z,11.38
2023-01-04T12:33:52.094Z,11.39
2023-01-04T12:34:52.576Z,11.41
2023-01-04T12:35:52.246Z,11.39
2023-01-04T12:36:52.052Z,11.39
2023-01-04T12:37:52.055Z,11.38
2023-01-04T12:38:51.992Z,11.39
2023-01-04T12:39:52.156Z,11.39
2023-01-04T12:40:52.147Z,11.41
2023-01-04T12:41:52.023Z,11.43
2023-01-04T12:42:51.981Z,11.43
2023-01-04T12:43:52.015Z,11.43
2023-01-04T12:44:52.355Z,11.46
2023-01-04T12:45:52.005Z,11.46
2023-01-04T12:46:51.951Z,11.49
2023-01-04T12:47:51.973Z,11.50
2023-01-04T12:48:51.915Z,11.47
2023-01-04T12:49:51.961Z,11.50
2023-01-04T12:50:59.280Z,11.52
2023-01-04T12:52:12.777Z,11.50
2023-01-04T12:53:11.252Z,11.52
2023-01-04T12:53:51.887Z,11.50
2023-01-04T12:54:51.829Z,11.52
2023-01-04T12:55:52.635Z,11.52
2023-01-04T12:56:51.943Z,11.52
2023-01-04T12:57:51.931Z,11.50
2023-01-04T12:59:24.143Z,11.52
2023-01-04T12:59:52.006Z,11.50
2023-01-04T13:00:51.953Z,11.53
2023-01-04T13:01:52.009Z,11.53
2023-01-04T13:02:52.923Z,11.56
2023-01-04T13:03:52.571Z,11.54
2023-01-04T13:05:09.305Z,11.57
2023-01-04T13:05:56.926Z,11.61
2023-01-04T13:06:52.079Z,11.61
2023-01-04T13:07:51.997Z,11.62
2023-01-04T13:08:51.848Z,11.62
2023-01-04T13:09:52.067Z,11.64
2023-01-04T13:10:51.738Z,11.65
2023-01-04T13:11:52.226Z,11.65
2023-01-04T13:12:51.753Z,11.65
2023-01-04T13:13:52.765Z,11.65
2023-01-04T13:14:51.647Z,11.64
2023-01-04T13:15:52.005Z,11.64
2023-01-04T13:16:51.870Z,11.62
2023-01-04T13:17:51.628Z,11.64
2023-01-04T13:18:51.943Z,11.65
2023-01-04T13:19:51.836Z,11.64
2023-01-04T13:20:51.626Z,11.62
2023-01-04T13:21:51.710Z,11.64
2023-01-04T13:22:51.601Z,11.62
2023-01-04T13:23:51.551Z,11.64
2023-01-04T13:24:51.751Z,11.65
2023-01-04T13:25:51.616Z,11.65
2023-01-04T13:26:51.562Z,11.67
2023-01-04T13:27:51.534Z,11.67
2023-01-04T13:28:57.957Z,11.70
2023-01-04T13:29:51.518Z,11.68
2023-01-04T13:30:51.556Z,11.70
2023-01-04T13:31:51.893Z,11.68
2023-01-04T13:33:24.104Z,11.68
2023-01-04T13:33:52.191Z,11.71
2023-01-04T13:34:51.513Z,11.70
2023-01-04T13:35:51.434Z,11.70
2023-01-04T13:36:51.521Z,11.71
2023-01-04T13:37:51.558Z,11.72
2023-01-04T13:38:51.422Z,11.70
2023-01-04T13:39:51.533Z,11.71
2023-01-04T13:40:51.399Z,11.70
2023-01-04T13:41:51.500Z,11.70
2023-01-04T13:42:51.466Z,11.70
2023-01-04T13:43:51.395Z,11.71
2023-01-04T13:45:18.547Z,11.74
2023-01-04T13:45:51.508Z,11.74
2023-01-04T13:46:51.404Z,11.75
2023-01-04T13:47:51.699Z,11.74
2023-01-04T13:48:51.361Z,11.78
2023-01-04T13:49:51.347Z,11.80
2023-01-04T13:50:51.309Z,11.83
2023-01-04T13:51:52.713Z,11.83
2023-01-04T13:53:05.590Z,11.83
2023-01-04T13:53:51.274Z,11.85
2023-01-04T13:54:51.310Z,11.85
2023-01-04T13:55:51.267Z,11.89
2023-01-04T13:56:55.497Z,11.89
2023-01-04T13:57:51.228Z,11.89
2023-01-04T13:58:51.208Z,11.89
2023-01-04T13:59:51.188Z,11.89
2023-01-04T14:00:51.371Z,11.89
2023-01-04T14:01:51.604Z,11.93
2023-01-04T14:02:51.286Z,11.94
2023-01-04T14:03:51.227Z,11.96
2023-01-04T14:04:51.190Z,11.96
2023-01-04T14:05:51.128Z,11.94
2023-01-04T14:06:51.136Z,11.93
2023-01-04T14:07:51.196Z,11.96
2023-01-04T14:08:51.144Z,11.94
2023-01-04T14:09:51.175Z,11.96
2023-01-04T14:10:51.112Z,11.97
2023-01-04T14:11:51.095Z,11.99
2023-01-04T14:12:51.076Z,11.99
2023-01-04T14:13:51.104Z,11.96
2023-01-04T14:14:51.075Z,11.97
2023-01-04T14:15:51.079Z,11.99
2023-01-04T14:16:51.189Z,11.97
2023-01-04T14:17:51.034Z,11.99
2023-01-04T14:18:51.448Z,11.97
2023-01-04T14:19:51.085Z,11.97
2023-01-04T14:20:51.143Z,11.97
2023-01-04T14:21:51.008Z,11.96
2023-01-04T14:22:50.998Z,11.94
2023-01-04T14:23:50.970Z,11.93
2023-01-04T14:25:09.123Z,11.90
2023-01-04T14:25:51.053Z,11.93
2023-01-04T14:26:51.073Z,11.93
2023-01-04T14:27:51.005Z,11.89
2023-01-04T14:28:50.943Z,11.90
2023-01-04T14:29:50.937Z,11.85
2023-01-04T14:30:51.343Z,11.85
2023-01-04T14:31:50.918Z,11.85
2023-01-04T14:32:51.016Z,11.86
2023-01-04T14:33:51.345Z,11.85
2023-01-04T14:35:50.916Z,11.83
2023-01-04T14:36:50.865Z,11.82
2023-01-04T14:37:50.985Z,11.82
2023-01-04T14:38:50.827Z,11.82
2023-01-04T14:39:50.821Z,11.83
2023-01-04T14:40:50.827Z,11.83
2023-01-04T14:41:50.843Z,11.82
2023-01-04T14:42:50.871Z,11.82
2023-01-04T14:43:50.783Z,11.80
2023-01-04T14:44:50.841Z,11.82
2023-01-04T14:45:50.951Z,11.82
2023-01-04T14:46:50.829Z,11.80
2023-01-04T14:47:50.824Z,11.80
2023-01-04T14:48:50.731Z,11.78
2023-01-04T14:49:50.803Z,11.77
2023-01-04T14:50:50.712Z,11.77
2023-01-04T14:51:51.163Z,11.75
2023-01-04T14:52:51.255Z,11.74
2023-01-04T14:53:50.899Z,11.72
2023-01-04T14:54:50.667Z,11.74
2023-01-04T14:55:50.668Z,11.74
2023-01-04T14:56:51.169Z,11.72
2023-01-04T14:57:50.672Z,11.74
2023-01-04T14:58:50.705Z,11.72
2023-01-04T14:59:50.799Z,11.72
2023-01-04T15:00:50.758Z,11.74
2023-01-04T15:01:50.762Z,11.74
2023-01-04T15:02:51.358Z,11.74
2023-01-04T15:03:50.779Z,11.74
2023-01-04T15:04:50.605Z,11.74
2023-01-04T15:05:50.789Z,11.74
2023-01-04T15:06:50.658Z,11.74
2023-01-04T15:07:51.141Z,11.74
2023-01-04T15:08:50.553Z,11.74
2023-01-04T15:09:50.718Z,11.74
2023-01-04T15:10:56.041Z,11.74
2023-01-04T15:11:50.521Z,11.72
2023-01-04T15:12:50.546Z,11.74
2023-01-04T15:13:50.624Z,11.74
2023-01-04T15:14:50.847Z,11.72
2023-01-04T15:15:50.711Z,11.74
2023-01-04T15:16:50.455Z,11.75
2023-01-04T15:17:50.672Z,11.77
2023-01-04T15:18:50.837Z,11.78
2023-01-04T15:19:50.875Z,11.78
2023-01-04T15:20:50.504Z,11.77
2023-01-04T15:21:50.404Z,11.77
2023-01-04T15:22:50.411Z,11.77
2023-01-04T15:23:50.365Z,11.80
2023-01-04T15:24:50.929Z,11.80
2023-01-04T15:25:50.412Z,11.80
2023-01-04T15:26:50.975Z,11.82
2023-01-04T15:27:50.316Z,11.78
2023-01-04T15:28:50.323Z,11.78
2023-01-04T15:29:50.313Z,11.78
2023-01-04T15:30:50.317Z,11.80
2023-01-04T15:31:50.431Z,11.80
2023-01-04T15:32:50.292Z,11.78
2023-01-04T15:33:50.287Z,11.78
2023-01-04T15:34:50.263Z,11.78
2023-01-04T15:35:50.233Z,11.78
2023-01-04T15:36:50.231Z,11.78
2023-01-04T15:37:50.302Z,11.80
2023-01-04T15:38:50.243Z,11.78
2023-01-04T15:39:50.229Z,11.77
2023-01-04T15:40:50.240Z,11.77
2023-01-04T15:41:50.202Z,11.77
2023-01-04T15:42:50.334Z,11.75
2023-01-04T15:43:50.202Z,11.74
2023-01-04T15:44:50.187Z,11.74
2023-01-04T15:45:50.159Z,11.74
2023-01-04T15:46:50.180Z,11.71
2023-01-04T15:47:50.354Z,11.70
2023-01-04T15:48:50.266Z,11.68
2023-01-04T15:49:50.163Z,11.68
2023-01-04T15:50:50.135Z,11.68
2023-01-04T15:51:50.148Z,11.68
2023-01-04T15:52:50.086Z,11.70
2023-01-04T15:53:50.097Z,11.67
2023-01-04T15:54:50.080Z,11.67
2023-01-04T15:55:50.102Z,11.67
2023-01-04T15:56:50.095Z,11.67
2023-01-04T15:57:50.074Z,11.68
2023-01-04T15:58:50.007Z,11.70
2023-01-04T15:59:50.033Z,11.70
2023-01-04T16:00:57.402Z,11.72
2023-01-04T16:01:50.357Z,11.70
2023-01-04T16:02:50.064Z,11.71
2023-01-04T16:03:54.020Z,11.72
2023-01-04T16:04:50.669Z,11.72
2023-01-04T16:05:50.141Z,11.72
2023-01-04T16:06:50.141Z,11.70
2023-01-04T16:07:50.057Z,11.70
2023-01-04T16:08:50.525Z,11.71
2023-01-04T16:09:49.953Z,11.68
2023-01-04T16:10:49.914Z,11.68
2023-01-04T16:11:49.869Z,11.67
2023-01-04T16:12:56.784Z,11.68
2023-01-04T16:13:49.899Z,11.67
2023-01-04T16:14:49.860Z,11.68
2023-01-04T16:15:49.884Z,11.70
2023-01-04T16:16:49.926Z,11.68
2023-01-04T16:17:49.873Z,11.71
2023-01-04T16:18:49.858Z,11.71
2023-01-04T16:19:49.816Z,11.71
2023-01-04T16:20:49.893Z,11.67
2023-01-04T16:21:49.809Z,11.67
2023-01-04T16:22:49.792Z,11.64
2023-01-04T16:23:49.788Z,11.64
2023-01-04T16:25:50.294Z,11.62
2023-01-04T16:26:49.881Z,11.64
2023-01-04T16:27:50.228Z,11.64
2023-01-04T16:28:49.952Z,11.68
2023-01-04T16:29:49.784Z,11.65
2023-01-04T16:30:49.838Z,11.67
2023-01-04T16:31:49.792Z,11.68
2023-01-04T16:32:49.831Z,11.70
2023-01-04T16:33:50.044Z,11.70
2023-01-04T16:34:49.644Z,11.68
2023-01-04T16:35:55.599Z,11.70
2023-01-04T16:36:49.670Z,11.68
2023-01-04T16:37:50.173Z,11.68
2023-01-04T16:38:49.840Z,11.70
2023-01-04T16:40:05.787Z,11.68
2023-01-04T16:40:49.776Z,11.68
2023-01-04T16:41:49.744Z,11.67
2023-01-04T16:42:50.127Z,11.68
2023-01-04T16:43:49.708Z,11.70
2023-01-04T16:44:49.767Z,11.68
2023-01-04T16:45:49.550Z,11.67
2023-01-04T16:46:49.960Z,11.68
2023-01-04T16:47:49.835Z,11.68
2023-01-04T16:48:49.518Z,11.67
2023-01-04T16:49:49.677Z,11.67
2023-01-04T16:50:49.911Z,11.65
2023-01-04T16:51:49.523Z,11.65
2023-01-04T16:52:49.503Z,11.65
2023-01-04T16:53:49.468Z,11.64
2023-01-04T16:54:49.584Z,11.61
2023-01-04T16:55:49.830Z,11.59
2023-01-04T16:56:49.463Z,11.57
2023-01-04T16:57:49.658Z,11.57
2023-01-04T16:58:49.820Z,11.57
2023-01-04T16:59:49.750Z,11.57
2023-01-04T17:00:49.667Z,11.56
2023-01-04T17:01:55.669Z,11.57
2023-01-04T17:02:49.670Z,11.59
2023-01-04T17:03:49.602Z,11.61
2023-01-04T17:04:49.370Z,11.62
2023-01-04T17:05:49.376Z,11.65
2023-01-04T17:06:49.451Z,11.65
2023-01-04T17:07:49.878Z,11.65
2023-01-04T17:08:49.350Z,11.64
2023-01-04T17:09:49.408Z,11.62
2023-01-04T17:10:49.363Z,11.62
2023-01-04T17:12:36.469Z,11.62
2023-01-04T17:12:50.537Z,11.62
2023-01-04T17:13:49.299Z,11.62
2023-01-04T17:15:07.946Z,11.61
2023-01-04T17:15:49.245Z,11.61
2023-01-04T17:16:49.338Z,11.61
2023-01-04T17:17:49.244Z,11.64
2023-01-04T17:18:49.765Z,11.62
2023-01-04T17:19:49.250Z,11.62
2023-01-04T17:20:49.228Z,11.65
2023-01-04T17:21:49.383Z,11.67
2023-01-04T17:22:49.173Z,11.67
2023-01-04T17:23:49.199Z,11.67
2023-01-04T17:24:49.230Z,11.64
2023-01-04T17:25:49.167Z,11.64
2023-01-04T17:26:49.162Z,11.61
2023-01-04T17:27:49.132Z,11.61
2023-01-04T17:28:49.127Z,11.59
2023-01-04T17:29:49.132Z,11.57
2023-01-04T17:30:49.385Z,11.53
2023-01-04T17:31:49.235Z,11.50
2023-01-04T17:32:49.099Z,11.49
2023-01-04T17:33:49.143Z,11.46
2023-01-04T17:34:49.240Z,11.43
2023-01-04T17:35:49.175Z,11.39
2023-01-04T17:36:49.186Z,11.35
2023-01-04T17:37:49.048Z,11.35
2023-01-04T17:38:49.078Z,11.34
2023-01-04T17:39:49.157Z,11.36
2023-01-04T17:40:49.132Z,11.36
2023-01-04T17:41:49.360Z,11.36
2023-01-04T17:42:49.098Z,11.35
2023-01-04T17:43:49.274Z,11.35
2023-01-04T17:44:48.992Z,11.34
2023-01-04T17:45:49.142Z,11.35
2023-01-04T17:46:49.007Z,11.36
2023-01-04T17:47:49.167Z,11.39
2023-01-04T17:48:55.502Z,11.38
2023-01-04T17:49:48.913Z,11.41
2023-01-04T17:50:48.913Z,11.44
2023-01-04T17:51:48.891Z,11.46
2023-01-04T17:52:49.080Z,11.46
2023-01-04T17:53:48.880Z,11.49
2023-01-04T17:54:48.919Z,11.49
2023-01-04T17:55:49.272Z,11.49
2023-01-04T17:56:49.043Z,11.50
2023-01-04T17:57:48.899Z,11.50
2023-01-04T17:58:49.263Z,11.52
2023-01-04T17:59:49.070Z,11.53
2023-01-04T18:00:48.881Z,11.52
2023-01-04T18:01:49.111Z,11.50
2023-01-04T18:02:49.371Z,11.50
2023-01-04T18:03:49.111Z,11.52
2023-01-04T18:04:48.970Z,11.49
2023-01-04T18:05:51.859Z,11.50
2023-01-04T18:06:48.983Z,11.52
2023-01-04T18:07:48.731Z,11.52
2023-01-04T18:08:48.729Z,11.53
2023-01-04T18:09:48.717Z,11.54
2023-01-04T18:11:06.854Z,11.54
2023-01-04T18:11:48.976Z,11.56
2023-01-04T18:12:48.936Z,11.54
2023-01-04T18:13:48.688Z,11.54
2023-01-04T18:14:48.821Z,11.52
2023-01-04T18:16:10.083Z,11.50
2023-01-04T18:16:48.697Z,11.50
2023-01-04T18:17:48.641Z,11.49
2023-01-04T18:18:48.933Z,11.46
2023-01-04T18:19:48.622Z,11.43
2023-01-04T18:20:49.408Z,11.46
2023-01-04T18:21:48.608Z,11.46
2023-01-04T18:22:48.577Z,11.46
2023-01-04T18:24:16.367Z,11.46
2023-01-04T18:24:48.605Z,11.44
2023-01-04T18:25:48.559Z,11.44
2023-01-04T18:27:49.079Z,11.44
2023-01-04T18:28:48.511Z,11.44
2023-01-04T18:29:48.509Z,11.44
2023-01-04T18:30:48.774Z,11.47
2023-01-04T18:31:48.575Z,11.47
2023-01-04T18:32:48.724Z,11.47
2023-01-04T18:33:48.787Z,11.49
2023-01-04T18:34:48.993Z,11.49
2023-01-04T18:35:48.691Z,11.50
2023-01-04T18:36:48.519Z,11.50
2023-01-04T18:37:48.475Z,11.50
2023-01-04T18:38:48.505Z,11.49
2023-01-04T18:39:48.525Z,11.49
2023-01-04T18:40:48.388Z,11.46
2023-01-04T18:41:48.419Z,11.44
2023-01-04T18:42:48.495Z,11.44
2023-01-04T18:44:05.687Z,11.46
2023-01-04T18:44:49.661Z,11.44
2023-01-04T18:45:48.436Z,11.46
2023-01-04T18:46:48.307Z,11.44
2023-01-04T18:47:48.297Z,11.44
2023-01-04T18:48:48.325Z,11.41
2023-01-04T18:49:48.297Z,11.39
2023-01-04T18:50:48.285Z,11.39
2023-01-04T18:51:48.318Z,11.38
2023-01-04T18:52:48.336Z,11.39
2023-01-04T18:53:48.278Z,11.38
2023-01-04T18:54:48.420Z,11.38
2023-01-04T18:55:48.214Z,11.39
2023-01-04T18:56:48.243Z,11.38
2023-01-04T18:57:48.224Z,11.38
2023-01-04T18:58:48.245Z,11.36
2023-01-04T18:59:48.249Z,11.38
2023-01-04T19:00:48.292Z,11.36
2023-01-04T19:01:48.340Z,11.36
2023-01-04T19:02:48.280Z,11.34
2023-01-04T19:03:48.239Z,11.32
2023-01-04T19:04:48.155Z,11.32
2023-01-04T19:05:48.227Z,11.32
2023-01-04T19:06:48.211Z,11.31
2023-01-04T19:07:48.123Z,11.31
2023-01-04T19:08:51.814Z,11.32
2023-01-04T19:09:48.178Z,11.32
2023-01-04T19:10:48.116Z,11.31
2023-01-04T19:11:48.119Z,11.28
2023-01-04T19:12:48.294Z,11.28
2023-01-04T19:13:48.058Z,11.27
2023-01-04T19:14:48.050Z,11.28
2023-01-04T19:15:48.064Z,11.29
2023-01-04T19:16:48.224Z,11.28
2023-01-04T19:17:48.016Z,11.29
2023-01-04T19:18:48.505Z,11.27
2023-01-04T19:19:48.036Z,11.27
2023-01-04T19:20:47.992Z,11.28
2023-01-04T19:21:48.115Z,11.25
2023-01-04T19:22:48.013Z,11.28
2023-01-04T19:23:48.036Z,11.28
2023-01-04T19:24:48.187Z,11.28
2023-01-04T19:25:48.370Z,11.28
2023-01-04T19:26:48.385Z,11.25
2023-01-04T19:27:47.982Z,11.25
2023-01-04T19:28:47.975Z,11.25
2023-01-04T19:29:48.525Z,11.27
2023-01-04T19:30:48.173Z,11.28
2023-01-04T19:31:48.025Z,11.31
2023-01-04T19:32:47.896Z,11.39
2023-01-04T19:33:48.206Z,11.44
2023-01-04T19:34:47.890Z,11.44
2023-01-04T19:35:47.854Z,11.44
2023-01-04T19:36:47.875Z,11.43
2023-01-04T19:37:48.402Z,11.39
2023-01-04T19:38:47.815Z,11.39
2023-01-04T19:39:47.818Z,11.38
2023-01-04T19:40:47.824Z,11.43
2023-01-04T19:41:47.968Z,11.43
2023-01-04T19:42:47.844Z,11.44
2023-01-04T19:43:47.910Z,11.46
2023-01-04T19:44:47.776Z,11.47
2023-01-04T19:45:48.090Z,11.49
2023-01-04T19:46:47.783Z,11.52
2023-01-04T19:47:47.747Z,11.54
2023-01-04T19:48:47.768Z,11.53
2023-01-04T19:49:47.811Z,11.53
2023-01-04T19:50:47.758Z,11.54
2023-01-04T19:51:47.723Z,11.57
2023-01-04T19:52:47.922Z,11.57
2023-01-04T19:53:47.709Z,11.56
2023-01-04T19:54:47.816Z,11.57
2023-01-04T19:55:47.664Z,11.59
2023-01-04T19:56:47.803Z,11.61
2023-01-04T19:57:47.665Z,11.61
2023-01-04T19:58:47.736Z,11.59
2023-01-04T19:59:47.775Z,11.56
2023-01-04T20:00:54.021Z,11.54
2023-01-04T20:01:47.717Z,11.53
2023-01-04T20:02:47.755Z,11.54
2023-01-04T20:03:47.824Z,11.50
2023-01-04T20:04:47.617Z,11.50
2023-01-04T20:05:47.650Z,11.47
2023-01-04T20:06:47.737Z,11.53
2023-01-04T20:07:47.537Z,11.54
2023-01-04T20:08:47.585Z,11.53
2023-01-04T20:09:47.488Z,11.53
2023-01-04T20:10:47.724Z,11.54
2023-01-04T20:11:47.606Z,11.56
2023-01-04T20:12:47.761Z,11.56
2023-01-04T20:13:47.523Z,11.56
2023-01-04T20:14:47.586Z,11.54
2023-01-04T20:15:48.091Z,11.53
2023-01-04T20:16:47.722Z,11.52
2023-01-04T20:17:47.759Z,11.53
2023-01-04T20:18:47.508Z,11.53
2023-01-04T20:19:47.464Z,11.54
2023-01-04T20:20:47.533Z,11.56
2023-01-04T20:21:47.407Z,11.56
2023-01-04T20:22:47.361Z,11.57
2023-01-04T20:23:47.351Z,11.54
2023-01-04T20:24:47.408Z,11.56
2023-01-04T20:25:47.396Z,11.53
2023-01-04T20:26:47.336Z,11.53
2023-01-04T20:27:47.363Z,11.54
2023-01-04T20:28:47.330Z,11.52
2023-01-04T20:29:47.325Z,11.54
2023-01-04T20:30:47.534Z,11.56
2023-01-04T20:31:47.463Z,11.53
2023-01-04T20:32:47.268Z,11.52
2023-01-04T20:33:47.261Z,11.50
2023-01-04T20:34:47.315Z,11.53
2023-01-04T20:35:47.438Z,11.52
2023-01-04T20:36:47.488Z,11.52
2023-01-04T20:37:47.471Z,11.52
2023-01-04T20:38:47.222Z,11.53
2023-01-04T20:39:47.207Z,11.53
2023-01-04T20:40:47.178Z,11.53
2023-01-04T20:41:47.212Z,11.53
2023-01-04T20:42:47.239Z,11.50
2023-01-04T20:43:47.187Z,11.52
2023-01-04T20:44:47.174Z,11.52
2023-01-04T20:45:47.223Z,11.52
2023-01-04T20:46:48.395Z,11.52
2023-01-04T20:47:47.535Z,11.50
2023-01-04T20:48:47.573Z,11.47
2023-01-04T20:49:47.118Z,11.47
2023-01-04T20:50:47.192Z,11.49
2023-01-04T20:51:47.077Z,11.47
2023-01-04T20:52:47.102Z,11.47
2023-01-04T20:53:47.246Z,11.49
2023-01-04T20:54:47.108Z,11.52
2023-01-04T20:55:47.067Z,11.52
2023-01-04T20:56:47.074Z,11.53
2023-01-04T20:57:47.050Z,11.54
2023-01-04T20:58:47.012Z,11.54
2023-01-04T20:59:47.010Z,11.54
2023-01-04T21:00:47.067Z,11.59
2023-01-04T21:01:47.151Z,11.62
2023-01-04T21:02:47.447Z,11.62
2023-01-04T21:03:47.126Z,11.57
2023-01-04T21:04:46.982Z,11.59
2023-01-04T21:05:46.972Z,11.61
2023-01-04T21:06:47.257Z,11.57
2023-01-04T21:07:46.921Z,11.57
2023-01-04T21:08:46.990Z,11.56